Time;durP1;ratioP1;P1;durP2;ratioP2;P2;SDS_P1;SDS_P2;PMS_P1;PMS_P2;Temp;Humidity;BMP_temperature;BMP_pressure;BME280_temperature;BME280_humidity;BME280_pressure;Samples;Min_cycle;Max_cycle;Signal;HPM_P1;HPM_P2
2022/08/02 00:02:25;;;;;;;;;;;19.00;99.90;;;;;;4985257;28;20439;-81
2022/08/02 00:04:50;;;;;;;;;;;19.00;99.90;;;;;;4989207;28;19936;-81
2022/08/02 00:07:16;;;;;;;;;;;19.00;99.90;;;;;;4987647;28;20395;-79
2022/08/02 00:09:42;;;;;;;;;;;19.00;99.90;;;;;;4995238;28;20004;-79
2022/08/02 00:12:08;;;;;;;;;;;19.10;99.90;;;;;;4989106;28;19965;-78
2022/08/02 00:14:33;;;;;;;;;;;19.00;99.90;;;;;;4995806;28;20352;-78
2022/08/02 00:16:59;;;;;;;;;;;18.90;99.90;;;;;;4986363;28;19922;-79
2022/08/02 00:19:24;;;;;;;;;;;18.90;99.90;;;;;;4915397;28;19929;-80
2022/08/02 00:21:50;;;;;;;;;;;19.00;99.90;;;;;;4987512;28;19973;-79
2022/08/02 00:24:15;;;;;;;;;;;19.00;99.90;;;;;;5002072;28;19918;-78
2022/08/02 00:26:40;;;;;;;;;;;19.00;99.90;;;;;;4989888;28;19909;-78
2022/08/02 00:29:06;;;;;;;;;;;19.00;99.90;;;;;;5004197;28;19918;-78
2022/08/02 00:31:31;;;;;;;;;;;19.00;99.90;;;;;;4989905;28;20368;-79
2022/08/02 00:33:57;;;;;;;;;;;18.80;99.90;;;;;;5004871;28;19913;-79
2022/08/02 00:36:22;;;;;;;;;;;18.80;99.90;;;;;;4989836;28;19997;-79
2022/08/02 00:38:48;;;;;;;;;;;18.80;99.90;;;;;;5006779;28;20016;-79
2022/08/02 00:41:15;;;;;;;;;;;18.90;99.90;;;;;;4987755;28;20008;-78
2022/08/02 00:43:41;;;;;;;;;;;18.70;99.90;;;;;;4996664;28;19918;-78
2022/08/02 00:46:07;;;;;;;;;;;18.60;99.90;;;;;;4988505;28;20008;-79
2022/08/02 00:48:32;;;;;;;;;;;18.70;99.90;;;;;;5001288;28;20401;-77
2022/08/02 00:50:57;;;;;;;;;;;18.70;99.90;;;;;;4989704;28;19953;-78
2022/08/02 00:53:23;;;;;;;;;;;18.80;99.90;;;;;;4994437;28;19917;-79
2022/08/02 00:55:48;;;;;;;;;;;18.90;99.90;;;;;;4991360;28;20627;-79
2022/08/02 00:58:14;;;;;;;;;;;18.70;99.90;;;;;;4999486;28;19996;-81
2022/08/02 01:00:39;;;;;;;;;;;18.70;99.90;;;;;;4992875;28;20352;-79
2022/08/02 01:03:05;;;;;;;;;;;18.80;99.90;;;;;;5004320;28;19960;-80
2022/08/02 01:05:30;;;;;;;;;;;18.90;99.90;;;;;;4993747;28;19914;-79
2022/08/02 01:07:56;;;;;;;;;;;18.80;99.90;;;;;;4990066;28;19918;-79
2022/08/02 01:10:22;;;;;;;;;;;18.80;99.90;;;;;;4994626;28;20033;-79
2022/08/02 01:12:47;;;;;;;;;;;18.70;99.90;;;;;;5008124;28;20024;-79
2022/08/02 01:15:13;;;;;;;;;;;18.80;99.90;;;;;;4977885;28;19918;-79
2022/08/02 01:18:02;;;;;;;;;;;18.80;99.90;;;;;;4950426;28;20314;-80
2022/08/02 01:20:39;;;;;;;;;;;18.80;99.90;;;;;;4976611;28;19960;-79
2022/08/02 01:23:34;;;;;;;;;;;18.70;99.90;;;;;;4991948;28;19940;-80
2022/08/02 01:26:06;;;;;;;;;;;18.70;99.90;;;;;;4931778;28;19966;-80
2022/08/02 01:28:35;;;;;;;;;;;18.70;99.90;;;;;;5001641;28;19916;-80
2022/08/02 01:31:09;;;;;;;;;;;18.80;99.90;;;;;;4990324;28;19922;-80
2022/08/02 01:33:38;;;;;;;;;;;18.70;99.90;;;;;;4976202;28;19965;-80
2022/08/02 01:36:04;;;;;;;;;;;18.70;99.90;;;;;;4990351;28;19925;-80
2022/08/02 01:38:32;;;;;;;;;;;18.90;99.90;;;;;;4998767;28;19949;-81
2022/08/02 01:40:59;;;;;;;;;;;19.00;99.90;;;;;;4990728;28;20004;-81
2022/08/02 01:43:27;;;;;;;;;;;19.10;99.90;;;;;;5001917;28;19929;-81
2022/08/02 01:45:53;;;;;;;;;;;19.00;99.90;;;;;;4991847;28;19922;-81
2022/08/02 01:48:19;;;;;;;;;;;18.80;99.90;;;;;;5005472;28;19917;-83
2022/08/02 01:50:45;;;;;;;;;;;18.80;99.90;;;;;;4993010;28;19943;-81
2022/08/02 01:53:11;;;;;;;;;;;18.70;99.90;;;;;;4999215;28;19979;-79
2022/08/02 01:55:39;;;;;;;;;;;18.70;99.90;;;;;;4993646;28;19921;-78
2022/08/02 01:58:06;;;;;;;;;;;18.80;99.90;;;;;;4996902;28;20042;-79
2022/08/02 02:00:33;;;;;;;;;;;18.80;99.90;;;;;;4990244;28;19921;-78
2022/08/02 02:02:59;;;;;;;;;;;18.90;99.90;;;;;;4988590;28;20120;-80
2022/08/02 02:05:27;;;;;;;;;;;18.70;99.90;;;;;;4984508;28;19918;-79
2022/08/02 02:07:55;;;;;;;;;;;18.70;99.90;;;;;;4974234;28;19921;-79
2022/08/02 02:10:23;;;;;;;;;;;18.70;99.90;;;;;;4968331;28;19918;-77
2022/08/02 02:12:50;;;;;;;;;;;18.60;99.90;;;;;;4975473;28;19930;-71
2022/08/02 02:15:16;;;;;;;;;;;18.60;99.90;;;;;;4995838;28;19918;-74
2022/08/02 02:17:42;;;;;;;;;;;18.60;99.90;;;;;;4919255;28;20466;-85
2022/08/02 02:20:12;;;;;;;;;;;18.50;99.90;;;;;;4988323;28;19914;-78
2022/08/02 02:22:37;;;;;;;;;;;18.60;99.90;;;;;;4999160;28;19914;-78
2022/08/02 02:25:03;;;;;;;;;;;18.60;99.90;;;;;;4993766;28;19968;-81
2022/08/02 02:27:29;;;;;;;;;;;18.50;99.90;;;;;;4987738;28;19922;-78
2022/08/02 02:29:55;;;;;;;;;;;18.60;99.90;;;;;;4986644;28;19942;-77
2022/08/02 02:32:21;;;;;;;;;;;18.50;99.90;;;;;;4987615;28;20233;-77
2022/08/02 02:34:48;;;;;;;;;;;18.50;99.90;;;;;;4986211;28;19925;-78
2022/08/02 02:37:21;;;;;;;;;;;18.50;99.90;;;;;;4987488;28;20380;-77
2022/08/02 02:39:48;;;;;;;;;;;18.50;99.90;;;;;;4999619;28;19914;-78
2022/08/02 02:42:15;;;;;;;;;;;18.50;99.90;;;;;;4987567;28;19910;-76
2022/08/02 02:44:41;;;;;;;;;;;18.50;99.90;;;;;;4991570;28;19914;-79
2022/08/02 02:47:08;;;;;;;;;;;18.50;99.90;;;;;;4987695;28;20293;-79
2022/08/02 02:49:34;;;;;;;;;;;18.50;99.90;;;;;;4997118;28;19913;-78
2022/08/02 02:52:01;;;;;;;;;;;18.50;99.90;;;;;;4987212;28;19910;-79
2022/08/02 02:54:27;;;;;;;;;;;18.50;99.90;;;;;;4996883;28;20012;-78
2022/08/02 02:56:53;;;;;;;;;;;18.40;99.90;;;;;;4987198;28;19960;-79
2022/08/02 02:59:18;;;;;;;;;;;18.30;99.90;;;;;;4990538;28;19980;-78
2022/08/02 03:01:44;;;;;;;;;;;18.10;99.90;;;;;;4985326;28;19917;-79
2022/08/02 03:04:10;;;;;;;;;;;18.00;99.90;;;;;;5006056;28;19917;-78
2022/08/02 03:06:36;;;;;;;;;;;17.90;99.90;;;;;;4985887;28;19925;-78
2022/08/02 03:09:02;;;;;;;;;;;17.70;99.90;;;;;;4995211;28;19918;-78
2022/08/02 03:11:28;;;;;;;;;;;17.60;99.90;;;;;;4986885;28;19925;-78
2022/08/02 03:14:03;;;;;;;;;;;17.60;99.90;;;;;;4995820;28;19920;-79
2022/08/02 03:16:28;;;;;;;;;;;17.50;99.90;;;;;;4943438;28;19918;-80
2022/08/02 03:18:54;;;;;;;;;;;17.50;99.90;;;;;;4995934;28;19917;-79
2022/08/02 03:21:20;;;;;;;;;;;17.60;99.90;;;;;;4988274;28;19913;-77
2022/08/02 03:23:45;;;;;;;;;;;17.50;99.90;;;;;;4988900;28;19921;-79
2022/08/02 03:26:11;;;;;;;;;;;17.50;99.90;;;;;;4989735;28;20679;-80
2022/08/02 03:28:36;;;;;;;;;;;17.40;99.90;;;;;;4990544;28;20048;-80
2022/08/02 03:31:02;;;;;;;;;;;17.40;99.90;;;;;;4989071;28;19976;-78
2022/08/02 03:33:27;;;;;;;;;;;17.30;99.90;;;;;;4986818;28;19981;-79
2022/08/02 03:35:55;;;;;;;;;;;17.20;99.90;;;;;;4992722;28;19968;-80
2022/08/02 03:38:21;;;;;;;;;;;17.20;99.90;;;;;;5005773;28;19921;-81
2022/08/02 03:40:47;;;;;;;;;;;17.20;99.90;;;;;;4969270;28;19915;-82
2022/08/02 03:43:13;;;;;;;;;;;17.20;99.90;;;;;;5004986;28;19917;-82
2022/08/02 03:45:40;;;;;;;;;;;17.20;99.90;;;;;;4991938;28;20380;-82
2022/08/02 03:48:06;;;;;;;;;;;17.20;99.90;;;;;;4998289;28;19913;-81
2022/08/02 03:50:32;;;;;;;;;;;17.20;99.90;;;;;;4992575;28;19917;-81
2022/08/02 03:52:58;;;;;;;;;;;17.20;99.90;;;;;;4991120;28;19917;-81
2022/08/02 03:55:23;;;;;;;;;;;17.20;99.90;;;;;;4995738;28;19918;-81
2022/08/02 03:57:49;;;;;;;;;;;17.40;99.90;;;;;;4986317;28;19918;-80
2022/08/02 04:00:17;;;;;;;;;;;17.30;99.90;;;;;;4986707;28;19929;-81
2022/08/02 04:02:44;;;;;;;;;;;17.30;99.90;;;;;;5000220;28;21548;-79
2022/08/02 04:05:09;;;;;;;;;;;17.30;99.90;;;;;;4995217;28;20405;-81
2022/08/02 04:07:35;;;;;;;;;;;17.30;99.90;;;;;;4986527;28;19909;-81
2022/08/02 04:10:00;;;;;;;;;;;17.30;99.90;;;;;;4992224;28;19914;-81
2022/08/02 04:12:26;;;;;;;;;;;17.30;99.90;;;;;;4986013;28;19913;-81
2022/08/02 04:14:51;;;;;;;;;;;17.30;99.90;;;;;;4986061;28;20677;-81
2022/08/02 04:17:19;;;;;;;;;;;17.30;99.90;;;;;;4909418;28;20355;-78
2022/08/02 04:19:49;;;;;;;;;;;17.20;99.90;;;;;;4991150;28;19925;-79
2022/08/02 04:22:17;;;;;;;;;;;17.30;99.90;;;;;;4986425;28;20277;-79
2022/08/02 04:24:46;;;;;;;;;;;17.10;99.90;;;;;;4985727;28;19918;-80
2022/08/02 04:27:12;;;;;;;;;;;17.00;99.90;;;;;;4987015;28;19910;-81
2022/08/02 04:29:37;;;;;;;;;;;16.90;99.90;;;;;;4993720;28;19914;-80
2022/08/02 04:32:03;;;;;;;;;;;16.90;99.90;;;;;;4984436;28;19914;-80
2022/08/02 04:34:29;;;;;;;;;;;16.90;99.90;;;;;;4990834;28;19917;-80
2022/08/02 04:36:55;;;;;;;;;;;16.90;99.90;;;;;;4985338;28;19917;-80
2022/08/02 04:39:20;;;;;;;;;;;16.90;99.90;;;;;;4995215;28;19925;-80
2022/08/02 04:41:46;;;;;;;;;;;17.00;99.90;;;;;;4986253;28;20009;-81
2022/08/02 04:44:12;;;;;;;;;;;17.00;99.90;;;;;;5005245;28;19960;-80
2022/08/02 04:46:38;;;;;;;;;;;17.00;99.90;;;;;;4984984;28;19917;-81
2022/08/02 04:49:03;;;;;;;;;;;17.00;99.90;;;;;;4993529;28;19937;-82
2022/08/02 04:51:29;;;;;;;;;;;17.00;99.90;;;;;;4987428;28;20444;-81
2022/08/02 04:53:54;;;;;;;;;;;17.20;99.90;;;;;;4995102;28;19941;-80
2022/08/02 04:56:20;;;;;;;;;;;17.30;99.90;;;;;;4986205;28;19917;-79
2022/08/02 04:58:45;;;;;;;;;;;17.40;99.90;;;;;;4991573;28;20016;-79
2022/08/02 05:01:10;;;;;;;;;;;17.30;99.90;;;;;;4991296;28;20258;-79
2022/08/02 05:03:36;;;;;;;;;;;17.30;99.90;;;;;;4988991;28;20439;-80
2022/08/02 05:06:02;;;;;;;;;;;17.30;99.90;;;;;;4983497;28;20432;-79
2022/08/02 05:08:27;;;;;;;;;;;17.40;99.90;;;;;;4992658;28;20346;-80
2022/08/02 05:10:53;;;;;;;;;;;17.50;99.90;;;;;;4997020;28;19967;-81
2022/08/02 05:13:18;;;;;;;;;;;17.70;99.90;;;;;;4990892;28;19921;-81
2022/08/02 05:15:46;;;;;;;;;;;17.80;99.90;;;;;;5000008;28;19914;-82
2022/08/02 05:18:12;;;;;;;;;;;17.80;99.90;;;;;;4938943;28;19917;-81
2022/08/02 05:20:37;;;;;;;;;;;17.70;99.90;;;;;;4979272;28;20000;-81
2022/08/02 05:23:03;;;;;;;;;;;17.60;99.90;;;;;;4987735;28;20059;-82
2022/08/02 05:25:28;;;;;;;;;;;17.60;99.90;;;;;;5000966;28;19972;-77
2022/08/02 05:27:53;;;;;;;;;;;17.70;99.90;;;;;;4989375;28;19914;-80
2022/08/02 05:30:19;;;;;;;;;;;17.70;99.90;;;;;;4993442;28;19914;-80
2022/08/02 05:32:45;;;;;;;;;;;17.80;99.90;;;;;;4989266;28;19910;-81
2022/08/02 05:35:11;;;;;;;;;;;17.80;99.90;;;;;;4998869;28;19918;-76
2022/08/02 05:37:37;;;;;;;;;;;17.80;99.90;;;;;;4988827;28;20013;-82
2022/08/02 05:40:02;;;;;;;;;;;17.80;99.90;;;;;;5003273;28;19924;-69
2022/08/02 05:42:31;;;;;;;;;;;18.00;99.90;;;;;;4989101;28;19914;-83
2022/08/02 05:44:56;;;;;;;;;;;18.30;99.90;;;;;;5014719;28;20352;-88
2022/08/02 05:47:23;;;;;;;;;;;18.50;99.90;;;;;;4987400;28;19921;-83
2022/08/02 05:49:48;;;;;;;;;;;18.60;99.90;;;;;;5004136;28;20021;-82
2022/08/02 05:52:15;;;;;;;;;;;18.50;99.90;;;;;;4986764;28;19925;-78
2022/08/02 05:54:41;;;;;;;;;;;18.50;99.90;;;;;;5009352;28;19924;-84
2022/08/02 05:57:14;;;;;;;;;;;18.40;99.90;;;;;;4989357;28;19957;-91
2022/08/02 06:00:04;;;;;;;;;;;18.40;99.90;;;;;;5004289;28;20012;-90
2022/08/02 06:02:42;;;;;;;;;;;18.40;99.90;;;;;;4982125;28;20005;-78
2022/08/02 06:05:18;;;;;;;;;;;18.50;99.90;;;;;;4996168;28;20435;-76
2022/08/02 06:07:45;;;;;;;;;;;18.60;99.90;;;;;;4988096;28;19990;-75
2022/08/02 06:10:14;;;;;;;;;;;18.90;99.90;;;;;;4997051;28;20000;-74
2022/08/02 06:12:47;;;;;;;;;;;19.20;99.90;;;;;;4987303;28;20009;-75
2022/08/02 06:15:14;;;;;;;;;;;19.40;99.90;;;;;;4989340;28;19925;-74
2022/08/02 06:17:39;;;;;;;;;;;19.60;99.90;;;;;;4987521;28;20280;-75
2022/08/02 06:20:06;;;;;;;;;;;19.50;99.90;;;;;;4993198;28;19914;-75
2022/08/02 06:22:32;;;;;;;;;;;19.50;99.90;;;;;;4987537;28;19968;-75
2022/08/02 06:24:58;;;;;;;;;;;19.30;99.90;;;;;;5006406;28;20373;-75
2022/08/02 06:27:25;;;;;;;;;;;19.20;99.90;;;;;;4985992;28;19914;-81
2022/08/02 06:29:52;;;;;;;;;;;19.40;99.90;;;;;;5003671;28;19968;-78
2022/08/02 06:32:18;;;;;;;;;;;19.80;99.90;;;;;;4986736;28;19918;-76
2022/08/02 06:34:44;;;;;;;;;;;19.90;99.90;;;;;;4989544;28;20380;-76
2022/08/02 06:37:11;;;;;;;;;;;19.90;99.90;;;;;;4987284;28;19918;-74
2022/08/02 06:39:45;;;;;;;;;;;19.50;99.90;;;;;;4998248;28;19917;-75
2022/08/02 06:42:11;;;;;;;;;;;19.30;99.90;;;;;;4987642;28;19930;-75
2022/08/02 06:44:37;;;;;;;;;;;19.70;99.90;;;;;;4994355;28;20280;-75
2022/08/02 06:47:03;;;;;;;;;;;20.00;99.90;;;;;;4987966;28;19918;-74
2022/08/02 06:49:28;;;;;;;;;;;20.10;99.90;;;;;;4991715;28;19917;-71
2022/08/02 06:51:54;;;;;;;;;;;20.20;99.90;;;;;;4989288;28;19918;-76
2022/08/02 06:54:20;;;;;;;;;;;20.40;99.90;;;;;;4981583;28;20377;-75
2022/08/02 06:56:46;;;;;;;;;;;20.40;99.60;;;;;;4984651;28;19941;-75
2022/08/02 06:59:12;;;;;;;;;;;20.30;99.90;;;;;;4998096;28;19917;-76
2022/08/02 07:01:37;;;;;;;;;;;20.30;99.60;;;;;;4989116;28;20341;-76
2022/08/02 07:04:03;;;;;;;;;;;20.30;99.60;;;;;;4992458;28;20400;-72
2022/08/02 07:06:28;;;;;;;;;;;20.30;99.80;;;;;;4988555;28;19917;-77
2022/08/02 07:08:54;;;;;;;;;;;20.20;99.50;;;;;;4984422;28;20309;-77
2022/08/02 07:11:19;;;;;;;;;;;20.20;99.10;;;;;;4985282;28;19922;-78
2022/08/02 07:13:45;;;;;;;;;;;20.00;99.20;;;;;;4986558;28;19924;-77
2022/08/02 07:16:13;;;;;;;;;;;20.00;99.30;;;;;;4942843;28;20512;-77
2022/08/02 07:18:41;;;;;;;;;;;20.00;99.30;;;;;;5002113;28;19922;-77
2022/08/02 07:21:06;;;;;;;;;;;20.20;99.00;;;;;;4994232;28;19925;-75
2022/08/02 07:23:34;;;;;;;;;;;20.50;98.70;;;;;;4986936;28;19997;-81
2022/08/02 07:26:00;;;;;;;;;;;20.50;98.90;;;;;;4976863;28;19928;-76
2022/08/02 07:28:25;;;;;;;;;;;20.50;98.70;;;;;;4986692;28;19914;-76
2022/08/02 07:30:50;;;;;;;;;;;20.30;98.40;;;;;;4985625;28;19965;-75
2022/08/02 07:33:16;;;;;;;;;;;20.40;98.70;;;;;;4986426;28;19913;-75
2022/08/02 07:35:41;;;;;;;;;;;20.60;98.50;;;;;;4991132;28;20037;-76
2022/08/02 07:38:07;;;;;;;;;;;20.60;98.60;;;;;;4986696;28;20012;-80
2022/08/02 07:40:32;;;;;;;;;;;20.50;98.60;;;;;;4987518;28;19922;-74
2022/08/02 07:42:58;;;;;;;;;;;20.70;98.30;;;;;;4986615;28;20017;-74
2022/08/02 07:45:24;;;;;;;;;;;20.50;98.20;;;;;;4997764;28;20373;-73
2022/08/02 07:47:50;;;;;;;;;;;20.40;98.50;;;;;;4986119;28;20472;-74
2022/08/02 07:50:16;;;;;;;;;;;20.40;98.50;;;;;;4985401;28;19924;-75
2022/08/02 07:52:42;;;;;;;;;;;20.60;98.30;;;;;;4978483;28;20126;-73
2022/08/02 07:55:08;;;;;;;;;;;20.70;97.70;;;;;;4980140;28;19914;-76
2022/08/02 07:57:34;;;;;;;;;;;20.60;98.10;;;;;;4979276;28;19965;-75
2022/08/02 08:00:02;;;;;;;;;;;20.70;97.90;;;;;;4984215;28;20401;-76
2022/08/02 08:02:28;;;;;;;;;;;20.80;98.00;;;;;;4980052;28;19921;-76
2022/08/02 08:04:53;;;;;;;;;;;21.00;97.90;;;;;;4979937;28;19914;-76
2022/08/02 08:07:19;;;;;;;;;;;21.10;97.70;;;;;;4982884;28;19999;-75
2022/08/02 08:09:46;;;;;;;;;;;21.00;97.80;;;;;;4979124;28;19985;-75
2022/08/02 08:12:12;;;;;;;;;;;21.20;97.80;;;;;;4979485;28;20349;-74
2022/08/02 08:14:38;;;;;;;;;;;21.40;97.40;;;;;;4979593;28;19922;-75
2022/08/02 08:17:04;;;;;;;;;;;21.30;97.00;;;;;;4930163;28;20005;-75
2022/08/02 08:19:30;;;;;;;;;;;21.20;97.20;;;;;;4976676;28;19933;-75
2022/08/02 08:21:55;;;;;;;;;;;21.30;97.00;;;;;;4976267;28;19918;-75
2022/08/02 08:24:20;;;;;;;;;;;21.20;97.30;;;;;;4981292;28;19913;-75
2022/08/02 08:26:46;;;;;;;;;;;21.40;97.10;;;;;;4991779;28;20035;-75
2022/08/02 08:29:11;;;;;;;;;;;21.80;96.60;;;;;;5001336;28;20410;-74
2022/08/02 08:31:37;;;;;;;;;;;21.70;95.90;;;;;;4993591;28;19918;-75
2022/08/02 08:34:02;;;;;;;;;;;21.70;95.60;;;;;;4993705;28;19944;-74
2022/08/02 08:36:28;;;;;;;;;;;21.70;95.60;;;;;;4988457;28;20373;-74
2022/08/02 08:38:53;;;;;;;;;;;21.90;95.20;;;;;;4988357;28;20003;-75
2022/08/02 08:41:19;;;;;;;;;;;21.90;95.10;;;;;;4979358;28;20005;-74
2022/08/02 08:43:45;;;;;;;;;;;22.00;95.30;;;;;;4979332;28;20008;-73
2022/08/02 08:46:15;;;;;;;;;;;22.10;94.50;;;;;;4983703;28;20327;-74
2022/08/02 08:48:45;;;;;;;;;;;22.00;95.00;;;;;;4980611;28;19913;-73
2022/08/02 08:51:13;;;;;;;;;;;22.00;95.00;;;;;;4980720;28;19925;-73
2022/08/02 08:53:40;;;;;;;;;;;22.20;94.90;;;;;;4979717;28;19913;-74
2022/08/02 08:56:06;;;;;;;;;;;22.50;94.60;;;;;;4980889;28;19917;-72
2022/08/02 08:58:32;;;;;;;;;;;22.50;94.30;;;;;;4979832;28;20270;-73
2022/08/02 09:00:57;;;;;;;;;;;22.40;94.00;;;;;;4982985;28;19926;-74
2022/08/02 09:03:22;;;;;;;;;;;22.10;94.00;;;;;;4980841;28;19995;-75
2022/08/02 09:05:48;;;;;;;;;;;22.10;94.80;;;;;;4982840;28;19925;-69
2022/08/02 09:08:14;;;;;;;;;;;22.20;94.20;;;;;;4987516;28;19917;-73
2022/08/02 09:10:41;;;;;;;;;;;22.60;94.20;;;;;;4990011;28;20052;-73
2022/08/02 09:13:09;;;;;;;;;;;22.90;93.50;;;;;;4989705;28;19914;-75
2022/08/02 09:15:35;;;;;;;;;;;23.00;93.50;;;;;;4997047;28;20012;-74
2022/08/02 09:18:02;;;;;;;;;;;23.20;92.60;;;;;;4986839;28;19928;-74
2022/08/02 09:20:28;;;;;;;;;;;23.10;92.40;;;;;;4997904;28;19961;-74
2022/08/02 09:23:09;;;;;;;;;;;23.10;92.30;;;;;;4987671;28;20435;-74
2022/08/02 09:25:35;;;;;;;;;;;23.30;92.40;;;;;;5000649;28;20424;-75
2022/08/02 09:28:02;;;;;;;;;;;23.30;91.80;;;;;;4987653;28;19921;-74
2022/08/02 09:30:27;;;;;;;;;;;23.40;91.30;;;;;;4997729;28;19913;-74
2022/08/02 09:32:53;;;;;;;;;;;23.00;91.70;;;;;;4980676;28;20278;-77
2022/08/02 09:35:32;;;;;;;;;;;22.90;91.70;;;;;;4981423;28;19918;-77
2022/08/02 09:38:13;;;;;;;;;;;22.90;91.90;;;;;;4979544;28;19968;-77
2022/08/02 09:40:39;;;;;;;;;;;23.20;91.90;;;;;;4983436;28;19918;-76
2022/08/02 09:43:05;;;;;;;;;;;23.40;91.30;;;;;;4978773;28;19924;-76
2022/08/02 09:45:33;;;;;;;;;;;23.50;90.80;;;;;;4984038;28;19913;-77
2022/08/02 09:48:00;;;;;;;;;;;23.30;91.00;;;;;;4980257;28;19992;-76
2022/08/02 09:50:25;;;;;;;;;;;23.30;90.90;;;;;;4981114;28;19918;-75
2022/08/02 09:52:53;;;;;;;;;;;23.50;90.60;;;;;;4982184;28;19929;-75
2022/08/02 09:55:19;;;;;;;;;;;23.70;90.70;;;;;;4982001;28;20343;-76
2022/08/02 09:57:44;;;;;;;;;;;23.80;90.60;;;;;;4979114;28;19914;-77
2022/08/02 10:00:10;;;;;;;;;;;23.50;90.00;;;;;;4983652;28;19930;-78
2022/08/02 10:02:35;;;;;;;;;;;23.20;90.60;;;;;;4985581;28;19918;-78
2022/08/02 10:05:01;;;;;;;;;;;23.30;90.90;;;;;;4987927;28;19918;-77
2022/08/02 10:07:27;;;;;;;;;;;23.50;90.50;;;;;;4986078;28;19918;-77
2022/08/02 10:09:53;;;;;;;;;;;23.90;90.20;;;;;;4992977;28;19917;-77
2022/08/02 10:12:19;;;;;;;;;;;24.00;89.20;;;;;;4987585;28;20005;-79
2022/08/02 10:14:44;;;;;;;;;;;24.00;89.10;;;;;;4994436;28;19968;-78
2022/08/02 10:17:10;;;;;;;;;;;24.10;88.00;;;;;;4993579;28;19918;-78
2022/08/02 10:19:36;;;;;;;;;;;24.30;88.00;;;;;;5006775;28;20449;-71
2022/08/02 10:22:05;;;;;;;;;;;24.20;88.40;;;;;;4978369;28;20305;-80
2022/08/02 10:24:32;;;;;;;;;;;24.40;87.30;;;;;;4982058;28;20259;-80
2022/08/02 10:26:58;;;;;;;;;;;24.30;86.70;;;;;;4980194;28;19976;-79
2022/08/02 10:29:28;;;;;;;;;;;24.20;86.60;;;;;;4981482;28;20463;-80
2022/08/02 10:32:02;;;;;;;;;;;24.30;87.00;;;;;;4981294;28;19957;-83
2022/08/02 10:34:33;;;;;;;;;;;24.50;86.10;;;;;;4979279;28;19918;-77
2022/08/02 10:37:02;;;;;;;;;;;25.00;86.60;;;;;;4992861;28;19918;-79
2022/08/02 10:39:33;;;;;;;;;;;24.90;84.30;;;;;;4991916;28;20012;-79
2022/08/02 10:41:58;;;;;;;;;;;24.60;84.70;;;;;;4984808;28;19953;-78
2022/08/02 10:44:28;;;;;;;;;;;24.40;85.30;;;;;;5004512;28;19967;-79
2022/08/02 10:47:20;;;;;;;;;;;24.30;84.60;;;;;;4983485;28;20568;-79
2022/08/02 10:49:49;;;;;;;;;;;24.00;84.30;;;;;;4971648;28;20312;-81
2022/08/02 10:52:15;;;;;;;;;;;24.20;84.10;;;;;;4987925;28;19920;-79
2022/08/02 10:54:42;;;;;;;;;;;24.60;84.30;;;;;;4996050;28;19913;-80
2022/08/02 10:57:18;;;;;;;;;;;25.10;83.10;;;;;;4983657;28;20137;-78
2022/08/02 10:59:44;;;;;;;;;;;24.20;82.40;;;;;;4988248;28;20473;-77
2022/08/02 11:02:10;;;;;;;;;;;24.30;82.40;;;;;;4984785;28;20036;-75
2022/08/02 11:04:35;;;;;;;;;;;24.60;83.80;;;;;;4983641;28;20405;-75
2022/08/02 11:07:12;;;;;;;;;;;25.70;80.70;;;;;;4992847;28;19914;-75
2022/08/02 11:09:38;;;;;;;;;;;25.50;80.70;;;;;;4990607;28;19996;-76
2022/08/02 11:12:05;;;;;;;;;;;25.60;79.70;;;;;;4995772;28;20534;-74
2022/08/02 11:14:31;;;;;;;;;;;26.30;79.80;;;;;;4986644;28;19924;-77
2022/08/02 11:16:57;;;;;;;;;;;27.10;75.30;;;;;;4991832;28;19944;-76
2022/08/02 11:19:23;;;;;;;;;;;26.80;75.90;;;;;;4986828;28;19918;-75
2022/08/02 11:22:02;;;;;;;;;;;27.40;75.00;;;;;;4994900;28;19918;-74
2022/08/02 11:24:29;;;;;;;;;;;27.40;75.30;;;;;;4991174;28;19961;-74
2022/08/02 11:26:56;;;;;;;;;;;27.50;71.50;;;;;;4985670;28;19917;-75
2022/08/02 11:29:30;;;;;;;;;;;26.80;74.60;;;;;;4986577;28;20508;-74
2022/08/02 11:31:56;;;;;;;;;;;27.00;73.40;;;;;;4971646;28;19937;-74
2022/08/02 11:34:23;;;;;;;;;;;27.50;72.20;;;;;;4986397;28;19910;-74
2022/08/02 11:36:50;;;;;;;;;;;27.20;72.60;;;;;;4986178;28;19918;-73
2022/08/02 11:39:16;;;;;;;;;;;26.60;73.10;;;;;;4986379;28;19948;-74
2022/08/02 11:41:42;;;;;;;;;;;27.20;71.90;;;;;;4998555;28;20008;-74
2022/08/02 11:44:08;;;;;;;;;;;26.50;72.10;;;;;;4986535;28;20015;-75
2022/08/02 11:46:33;;;;;;;;;;;27.10;70.70;;;;;;4998656;28;20407;-76
2022/08/02 11:49:15;;;;;;;;;;;27.10;68.60;;;;;;4986886;28;19914;-76
2022/08/02 11:51:50;;;;;;;;;;;27.80;67.50;;;;;;4994515;28;19930;-75
2022/08/02 11:54:21;;;;;;;;;;;28.40;66.70;;;;;;4978253;28;20703;-76
2022/08/02 11:56:46;;;;;;;;;;;28.00;62.90;;;;;;4974001;28;19945;-76
2022/08/02 11:59:12;;;;;;;;;;;28.50;59.90;;;;;;4977152;28;19964;-75
2022/08/02 12:01:38;;;;;;;;;;;27.30;63.00;;;;;;4978024;28;20001;-76
2022/08/02 12:04:04;;;;;;;;;;;27.30;62.00;;;;;;4975956;28;19922;-75
2022/08/02 12:06:30;;;;;;;;;;;27.00;61.70;;;;;;4976944;28;19922;-76
2022/08/02 12:09:02;;;;;;;;;;;28.00;62.50;;;;;;4975687;28;19920;-76
2022/08/02 12:11:27;;;;;;;;;;;28.60;60.90;;;;;;4977544;28;20377;-74
2022/08/02 12:13:53;;;;;;;;;;;28.50;61.60;;;;;;4975058;28;19965;-74
2022/08/02 12:19:18;;;;;;;;;;;27.80;61.60;;;;;;4979788;28;19973;-74
2022/08/02 12:21:44;;;;;;;;;;;28.00;61.40;;;;;;4980156;28;20281;-74
2022/08/02 12:24:09;;;;;;;;;;;29.20;59.30;;;;;;4981767;28;19916;-75
2022/08/02 12:26:42;;;;;;;;;;;28.10;59.70;;;;;;4983152;28;20041;-75
2022/08/02 12:29:07;;;;;;;;;;;28.90;59.50;;;;;;4981374;28;19917;-75
2022/08/02 12:31:44;;;;;;;;;;;27.80;59.40;;;;;;4978632;28;20015;-75
2022/08/02 12:34:10;;;;;;;;;;;28.30;59.90;;;;;;4979782;28;19920;-75
2022/08/02 12:36:35;;;;;;;;;;;28.40;61.40;;;;;;4983360;28;19918;-76
2022/08/02 12:39:01;;;;;;;;;;;28.80;59.30;;;;;;4980767;28;19925;-74
2022/08/02 12:41:28;;;;;;;;;;;29.90;55.90;;;;;;4980040;28;19918;-76
2022/08/02 12:43:53;;;;;;;;;;;29.70;55.20;;;;;;4980233;28;19909;-76
2022/08/02 12:46:20;;;;;;;;;;;29.90;54.60;;;;;;4984303;28;19924;-85
2022/08/02 12:48:45;;;;;;;;;;;29.50;55.50;;;;;;4981363;28;20041;-76
2022/08/02 12:51:23;;;;;;;;;;;30.30;53.60;;;;;;4981860;28;20660;-75
2022/08/02 12:53:49;;;;;;;;;;;30.60;52.70;;;;;;4980537;28;20068;-74
2022/08/02 12:56:28;;;;;;;;;;;29.10;52.70;;;;;;4985464;28;20036;-75
2022/08/02 12:58:53;;;;;;;;;;;29.20;53.80;;;;;;4983197;28;19972;-76
2022/08/02 13:01:20;;;;;;;;;;;29.20;54.20;;;;;;4983682;28;19957;-75
2022/08/02 13:03:46;;;;;;;;;;;29.30;53.10;;;;;;4979869;28;19925;-74
2022/08/02 13:06:11;;;;;;;;;;;29.10;52.80;;;;;;4982047;28;20285;-75
2022/08/02 13:08:37;;;;;;;;;;;29.20;53.00;;;;;;4980912;28;19918;-75
2022/08/02 13:11:02;;;;;;;;;;;28.90;54.80;;;;;;4982628;28;20436;-74
2022/08/02 13:13:28;;;;;;;;;;;30.30;52.40;;;;;;4981619;28;20343;-75
2022/08/02 13:15:53;;;;;;;;;;;29.70;52.40;;;;;;4986323;28;19922;-75
2022/08/02 13:18:25;;;;;;;;;;;30.60;51.50;;;;;;4982016;28;20384;-74
2022/08/02 13:20:50;;;;;;;;;;;30.40;50.60;;;;;;4950414;28;19964;-73
2022/08/02 13:23:16;;;;;;;;;;;29.50;52.90;;;;;;4983512;28;20377;-76
2022/08/02 13:25:41;;;;;;;;;;;30.50;50.80;;;;;;4982554;28;20285;-76
2022/08/02 13:28:07;;;;;;;;;;;31.60;48.50;;;;;;4981685;28;20008;-73
2022/08/02 13:30:32;;;;;;;;;;;31.50;48.30;;;;;;4987288;28;20368;-76
2022/08/02 13:32:58;;;;;;;;;;;31.30;47.90;;;;;;4986489;28;19980;-74
2022/08/02 13:35:23;;;;;;;;;;;31.10;48.80;;;;;;4983533;28;20051;-75
2022/08/02 13:37:49;;;;;;;;;;;31.00;48.40;;;;;;4980988;28;20025;-75
2022/08/02 13:40:15;;;;;;;;;;;30.30;48.90;;;;;;4984035;28;20258;-75
2022/08/02 13:42:40;;;;;;;;;;;30.60;50.80;;;;;;4982991;28;19926;-75
2022/08/02 13:45:06;;;;;;;;;;;32.00;47.40;;;;;;4981740;28;19914;-74
2022/08/02 13:47:31;;;;;;;;;;;32.70;46.40;;;;;;4985720;28;19926;-75
2022/08/02 13:49:57;;;;;;;;;;;31.00;46.40;;;;;;4983536;28;20046;-73
2022/08/02 13:52:22;;;;;;;;;;;30.30;48.20;;;;;;4982815;28;19939;-75
2022/08/02 13:54:47;;;;;;;;;;;29.50;50.20;;;;;;4980475;28;19914;-75
2022/08/02 13:57:13;;;;;;;;;;;29.60;49.90;;;;;;4984204;28;19921;-74
2022/08/02 13:59:38;;;;;;;;;;;30.20;48.80;;;;;;4983541;28;20266;-75
2022/08/02 14:02:04;;;;;;;;;;;30.40;48.50;;;;;;4979430;28;19994;-73
2022/08/02 14:04:29;;;;;;;;;;;31.10;48.30;;;;;;4981015;28;19929;-74
2022/08/02 14:06:55;;;;;;;;;;;30.30;49.40;;;;;;4983774;28;20369;-74
2022/08/02 14:09:20;;;;;;;;;;;30.00;49.80;;;;;;4978710;28;19918;-74
2022/08/02 14:11:46;;;;;;;;;;;30.20;48.40;;;;;;4979368;28;19917;-74
2022/08/02 14:14:12;;;;;;;;;;;30.20;50.10;;;;;;4981815;28;21652;-73
2022/08/02 14:16:37;;;;;;;;;;;31.20;49.70;;;;;;4989364;28;20304;-75
2022/08/02 14:19:04;;;;;;;;;;;31.00;49.40;;;;;;4985825;28;19918;-79